Glasco, KS

6:41 AM CDT on March 25, 2017 (GMT -0500)
1.5 miles East of Glasco | | Change Station

Elev 1358 ft 39.37 °N, 97.81 °W | Updated 44 seconds ago

Rain
Rain
40.8 °F
Feels Like 31 °F
N
23.0
Wind Variable Wind from NNW
Gusts 24.8 mph

Today
High -- | Low -- °F
--% Chance of Precip.
Yesterday
High -- | Low -- °F
Precip. -- in
Pressure 29.96 in
Visibility 7.0 miles
Clouds Mostly Cloudy 1000 ft
Overcast 1400 ft
Windchill 31 °F
Dew Point 41 °F
Humidity 99%
Rainfall 0.00 in
Snow Depth Not available.
7:26 AM 7:48 PM
Waning Crescent, 9% visible
METAR KCNK 251055Z AUTO 34015G21KT 7SM -RA BKN010 OVC014 04/04 A2994 RMK AO2 CIG 007V012 SLP144 P0016 T00440039
Pressure 29.96 in
Visibility 7.0 miles
Clouds Mostly Cloudy 1000 ft
Overcast 1400 ft
Windchill 31 °F
Dew Point 41 °F
Humidity 99%
Rainfall 0.00 in
Snow Depth Not available.
7:26 AM 7:48 PM
Waning Crescent, 9% visible
METAR KCNK 251055Z AUTO 34015G21KT 7SM -RA BKN010 OVC014 04/04 A2994 RMK AO2 CIG 007V012 SLP144 P0016 T00440039

Get Severe Weather Alerts

Thanks for signing up!

Be on the lookout for a verification email in your inbox.

You'll start receiving the daily forecast at 8 AM.

×

10-Day Weather Forecast

Almanac

Astronomy

Mar. 25, 2017 Rise Set
Actual Time
Civil Twilight
Nautical Twilight
Astronomical Twilight
Moon
Length of Visible Light
Length of Day
Tomorrow will be .
, % of the Moon is Illuminated

Today's Extremes

State Highs State Lows

Community

WunderPhotos

Upload Photos

1,962,540 photos uploaded!

WunderBlog® & News

Nearby

Air Quality

  Air Quality AQ Index Pollutant
Not available.

Snow Depth

Station Depth Elevation

Earthquake Activity

City Distance Mag. Time & Date
Minimum magnitude displayed is 2.5.

Earthquake Activity

City Distance Mag. Time & Date
Minimum magnitude displayed is 2.5.

Coastal Water Temperatures

Place Temperature

Stations

Nearby Weather Stations

Station Location Temp. Windchill Dew Point Humidity Wind Precip. Elev Updated Type
                   

Watches & Warnings

There are currently no watches in effect.